aviador You're here:

SCIR Decoded Metar

in
Report Time2017-09-25 16:00:00
UTC Time2017-09-25 16:51:05
Flight Rules vfr VFR
Wind120° at 20 kt
W.Rank120° ranks 17
Current wind is above 120° avg. (11.4)
Visibility9999 m
Phenomena:N/A
Clouds:Few 025 Hf
Expected CloudBase > 2,400 ft AGL from Temp-Dew spread
CeilingNone
Temp13°C
Dew Point07°C (67% RH)
AAT5.1°C
QNH1028 hPa
Raw Report
METAR SCIR 251600Z 12020KT 9999 FEW025 13/07 Q1028=

Extra information for SCIR:More info

Social comments